Time;durP1;ratioP1;P1;durP2;ratioP2;P2;SDS_P1;SDS_P2;PMS_P1;PMS_P2;Temp;Humidity;BMP_temperature;BMP_pressure;BME280_temperature;BME280_humidity;BME280_pressure;Samples;Min_cycle;Max_cycle;Signal;HPM_P1;HPM_P2
2022/06/10 00:00:08;;;;;;;4.68;2.40;;;;;;;;;;5068014;28;20036;-86
2022/06/10 00:02:34;;;;;;;4.85;2.80;;;;;;;;;;5097537;28;20043;-86
2022/06/10 00:05:01;;;;;;;4.93;2.55;;;;;;;;;;5067204;28;20039;-86
2022/06/10 00:07:33;;;;;;;6.50;2.42;;;;;;;;;;5069591;28;20488;-85
2022/06/10 00:10:00;;;;;;;7.88;3.13;;;;;;;;;;5070024;28;20043;-85
2022/06/10 00:12:26;;;;;;;6.20;2.65;;;;;;;;;;5086275;28;20445;-84
2022/06/10 00:14:52;;;;;;;4.40;2.40;;;;;;;;;;5068321;28;20091;-84
2022/06/10 00:17:18;;;;;;;6.25;2.63;;;;;;;;;;5069845;28;20476;-84
2022/06/10 00:19:44;;;;;;;5.90;2.20;;;;;;;;;;5066620;28;20439;-84
2022/06/10 00:22:10;;;;;;;9.07;2.88;;;;;;;;;;5071652;28;20047;-85
2022/06/10 00:24:36;;;;;;;5.57;2.50;;;;;;;;;;5067645;28;20050;-84
2022/06/10 00:27:02;;;;;;;7.65;3.08;;;;;;;;;;5069896;28;20119;-85
2022/06/10 00:29:28;;;;;;;5.10;2.72;;;;;;;;;;5058759;28;20036;-85
2022/06/10 00:31:54;;;;;;;3.38;2.40;;;;;;;;;;5059026;28;20037;-87
2022/06/10 00:34:20;;;;;;;4.88;2.40;;;;;;;;;;5060024;28;20056;-86
2022/06/10 00:36:46;;;;;;;5.80;2.53;;;;;;;;;;5059558;28;20037;-85
2022/06/10 00:39:12;;;;;;;3.40;2.22;;;;;;;;;;5061350;28;20053;-85
2022/06/10 00:41:41;;;;;;;6.90;2.78;;;;;;;;;;5063689;28;20040;-86
2022/06/10 00:44:27;;;;;;;4.22;2.47;;;;;;;;;;5062420;28;20446;-87
2022/06/10 00:46:53;;;;;;;6.47;2.58;;;;;;;;;;5061050;28;20051;-86
2022/06/10 00:49:20;;;;;;;9.35;2.38;;;;;;;;;;5059838;28;20056;-86
2022/06/10 00:51:56;;;;;;;4.30;2.75;;;;;;;;;;5059774;28;20108;-86
2022/06/10 00:54:37;;;;;;;9.00;3.20;;;;;;;;;;5061550;28;20075;-84
2022/06/10 00:57:09;;;;;;;3.97;2.50;;;;;;;;;;5061104;28;20085;-84
2022/06/10 00:59:41;;;;;;;6.80;3.03;;;;;;;;;;5063210;28;20036;-85
2022/06/10 01:02:15;;;;;;;7.10;2.95;;;;;;;;;;5062243;28;20062;-88
2022/06/10 01:04:42;;;;;;;5.72;2.92;;;;;;;;;;5081547;28;20047;-87
2022/06/10 01:07:09;;;;;;;4.80;3.05;;;;;;;;;;5061295;28;20405;-85
2022/06/10 01:09:35;;;;;;;4.03;2.95;;;;;;;;;;5064262;28;20044;-84
2022/06/10 01:12:10;;;;;;;5.25;3.00;;;;;;;;;;5060637;28;20511;-82
2022/06/10 01:14:48;;;;;;;9.02;3.10;;;;;;;;;;5060369;28;20114;-86
2022/06/10 01:17:31;;;;;;;7.18;2.65;;;;;;;;;;5061805;28;20552;-84
2022/06/10 01:20:15;;;;;;;8.98;3.08;;;;;;;;;;5061331;28;20641;-85
2022/06/10 01:22:48;;;;;;;5.30;3.30;;;;;;;;;;5060306;28;20063;-88
2022/06/10 01:25:17;;;;;;;8.85;3.38;;;;;;;;;;5061141;28;20385;-83
2022/06/10 01:27:48;;;;;;;9.45;3.45;;;;;;;;;;5062572;28;20374;-86
2022/06/10 01:30:21;;;;;;;6.38;3.28;;;;;;;;;;5059671;28;20033;-85
2022/06/10 01:33:05;;;;;;;7.63;2.78;;;;;;;;;;5060281;28;20048;-84
2022/06/10 01:35:37;;;;;;;6.05;3.03;;;;;;;;;;5078632;28;20032;-85
2022/06/10 01:38:14;;;;;;;6.38;3.08;;;;;;;;;;5059897;28;20036;-85
2022/06/10 01:40:47;;;;;;;9.68;3.40;;;;;;;;;;5060706;28;20070;-87
2022/06/10 01:43:32;;;;;;;8.98;3.50;;;;;;;;;;5060069;28;20040;-84
2022/06/10 01:46:01;;;;;;;7.40;3.83;;;;;;;;;;5060611;28;20044;-86
2022/06/10 01:48:37;;;;;;;7.72;3.75;;;;;;;;;;5060858;28;20508;-86
2022/06/10 01:51:11;;;;;;;8.38;3.53;;;;;;;;;;5075768;28;20044;-87
2022/06/10 01:53:57;;;;;;;12.70;3.80;;;;;;;;;;5058011;28;20041;-81
2022/06/10 01:56:27;;;;;;;5.25;3.10;;;;;;;;;;5057427;28;20405;-83
2022/06/10 01:58:57;;;;;;;6.80;3.35;;;;;;;;;;5058788;28;20037;-86
2022/06/10 02:01:27;;;;;;;9.15;3.10;;;;;;;;;;5059435;28;20048;-86
2022/06/10 02:04:02;;;;;;;13.40;4.07;;;;;;;;;;5058577;28;20048;-88
2022/06/10 02:06:46;;;;;;;7.50;3.67;;;;;;;;;;5058941;28;20040;-86
2022/06/10 02:09:15;;;;;;;9.60;3.63;;;;;;;;;;5060021;28;20558;-85
2022/06/10 02:11:44;;;;;;;7.93;3.28;;;;;;;;;;5060035;28;20058;-87
2022/06/10 02:14:12;;;;;;;6.97;3.30;;;;;;;;;;5060490;28;20044;-87
2022/06/10 02:16:44;;;;;;;9.20;3.95;;;;;;;;;;5060188;28;20039;-86
2022/06/10 02:19:27;;;;;;;7.47;3.50;;;;;;;;;;5060263;28;20310;-86
2022/06/10 02:21:57;;;;;;;5.63;4.22;;;;;;;;;;5060854;28;20123;-87
2022/06/10 02:24:22;;;;;;;4.93;3.08;;;;;;;;;;5060645;28;20138;-87
2022/06/10 02:26:50;;;;;;;5.78;3.30;;;;;;;;;;5059747;28;20052;-86
2022/06/10 02:29:19;;;;;;;7.53;3.45;;;;;;;;;;5059558;28;20049;-87
2022/06/10 02:31:46;;;;;;;7.40;3.55;;;;;;;;;;5058491;28;20045;-86
2022/06/10 02:34:15;;;;;;;4.43;3.38;;;;;;;;;;5074731;28;20044;-87
2022/06/10 02:36:53;;;;;;;7.18;4.10;;;;;;;;;;5058866;28;20400;-87
2022/06/10 02:39:22;;;;;;;5.82;3.70;;;;;;;;;;5059175;28;20078;-85
2022/06/10 02:42:07;;;;;;;8.13;4.07;;;;;;;;;;5059958;28;20067;-85
2022/06/10 02:44:39;;;;;;;12.30;4.38;;;;;;;;;;5060425;28;20447;-89
2022/06/10 02:47:18;;;;;;;4.35;3.35;;;;;;;;;;5061085;28;20044;-87
2022/06/10 02:49:44;;;;;;;7.50;4.03;;;;;;;;;;5057950;28;20090;-89
2022/06/10 02:52:14;;;;;;;6.63;3.28;;;;;;;;;;5060450;28;20538;-84
2022/06/10 02:54:43;;;;;;;7.68;3.90;;;;;;;;;;5060129;28;20060;-85
2022/06/10 02:57:15;;;;;;;7.03;3.70;;;;;;;;;;5060062;28;20048;-85
2022/06/10 03:02:39;;;;;;;10.25;3.47;;;;;;;;;;5075807;28;20500;-85
2022/06/10 03:05:08;;;;;;;6.72;3.20;;;;;;;;;;5058477;28;20480;-85
2022/06/10 03:07:43;;;;;;;14.77;3.90;;;;;;;;;;5060060;28;20131;-86
2022/06/10 03:10:17;;;;;;;6.43;4.40;;;;;;;;;;5060143;28;20041;-84
2022/06/10 03:12:52;;;;;;;5.82;3.75;;;;;;;;;;5060218;28;20060;-87
2022/06/10 03:15:33;;;;;;;6.20;3.70;;;;;;;;;;5076175;28;20507;-87
2022/06/10 03:18:28;;;;;;;6.05;3.47;;;;;;;;;;5059626;28;20477;-84
2022/06/10 03:20:57;;;;;;;9.25;3.80;;;;;;;;;;5046565;28;20370;-87
2022/06/10 03:23:39;;;;;;;9.02;3.33;;;;;;;;;;5059870;28;20055;-87
2022/06/10 03:26:08;;;;;;;8.60;4.00;;;;;;;;;;5061501;28;20044;-85
2022/06/10 03:28:56;;;;;;;7.75;4.10;;;;;;;;;;5077147;28;20075;-87
2022/06/10 03:31:34;;;;;;;9.63;4.28;;;;;;;;;;5060298;28;20052;-89
2022/06/10 03:34:19;;;;;;;7.47;3.60;;;;;;;;;;5059258;28;20127;-87
2022/06/10 03:36:46;;;;;;;10.00;4.10;;;;;;;;;;5057850;28;20040;-83
2022/06/10 03:39:13;;;;;;;7.18;4.13;;;;;;;;;;5059591;28;20049;-88
2022/06/10 03:41:53;;;;;;;8.88;4.07;;;;;;;;;;5059519;28;20041;-86
2022/06/10 03:44:20;;;;;;;6.85;4.57;;;;;;;;;;5056822;28;20131;-87
2022/06/10 03:46:48;;;;;;;18.20;4.80;;;;;;;;;;5059063;28;20394;-87
2022/06/10 03:49:16;;;;;;;8.05;4.35;;;;;;;;;;5056297;28;20083;-87
2022/06/10 03:51:42;;;;;;;6.93;3.83;;;;;;;;;;5055279;28;20041;-86
2022/06/10 03:54:08;;;;;;;8.77;3.90;;;;;;;;;;5074584;28;20044;-86
2022/06/10 03:56:36;;;;;;;4.78;3.70;;;;;;;;;;5077146;28;20456;-87
2022/06/10 03:59:02;;;;;;;8.07;3.63;;;;;;;;;;5073790;28;20127;-87
2022/06/10 04:01:28;;;;;;;6.63;3.83;;;;;;;;;;5054341;28;20040;-87
2022/06/10 04:03:54;;;;;;;7.63;4.05;;;;;;;;;;5056317;28;20036;-88
2022/06/10 04:06:20;;;;;;;10.13;4.10;;;;;;;;;;5057290;28;20071;-87
2022/06/10 04:08:46;;;;;;;8.57;4.22;;;;;;;;;;5056518;28;20451;-87
2022/06/10 04:11:12;;;;;;;12.27;4.28;;;;;;;;;;5055789;28;20078;-86
2022/06/10 04:13:38;;;;;;;16.15;4.55;;;;;;;;;;5054256;28;20040;-87
2022/06/10 04:16:05;;;;;;;7.18;3.90;;;;;;;;;;5055840;28;20045;-87
2022/06/10 04:18:31;;;;;;;8.23;3.40;;;;;;;;;;5055845;28;20048;-86
2022/06/10 04:20:57;;;;;;;5.55;3.45;;;;;;;;;;5056371;28;20041;-86
2022/06/10 04:23:23;;;;;;;9.90;3.83;;;;;;;;;;5056801;28;20088;-88
2022/06/10 04:25:49;;;;;;;10.55;3.63;;;;;;;;;;5056395;28;20047;-87
2022/06/10 04:28:15;;;;;;;4.85;3.10;;;;;;;;;;5057590;28;20059;-86
2022/06/10 04:30:43;;;;;;;4.95;3.53;;;;;;;;;;5064598;28;20404;-86
2022/06/10 04:33:09;;;;;;;7.32;3.20;;;;;;;;;;5062634;28;20043;-86
2022/06/10 04:35:36;;;;;;;7.55;3.45;;;;;;;;;;5061489;28;20459;-87
2022/06/10 04:38:03;;;;;;;9.25;3.47;;;;;;;;;;5062485;28;20397;-87
2022/06/10 04:40:31;;;;;;;5.97;3.40;;;;;;;;;;5062189;28;20053;-86
2022/06/10 04:42:58;;;;;;;9.88;4.10;;;;;;;;;;5061386;28;20040;-86
2022/06/10 04:45:26;;;;;;;5.93;3.30;;;;;;;;;;5060317;28;20489;-87
2022/06/10 04:47:55;;;;;;;9.05;4.10;;;;;;;;;;5059539;28;20047;-85
2022/06/10 04:50:22;;;;;;;6.95;4.22;;;;;;;;;;5059788;28;20160;-86
2022/06/10 04:52:48;;;;;;;8.18;3.88;;;;;;;;;;5060506;28;20045;-86
2022/06/10 04:55:14;;;;;;;7.35;4.43;;;;;;;;;;5060315;28;20084;-87
2022/06/10 04:57:41;;;;;;;9.68;4.22;;;;;;;;;;5060346;28;20477;-87
2022/06/10 05:00:09;;;;;;;8.13;3.75;;;;;;;;;;5077428;28;20032;-88
2022/06/10 05:02:35;;;;;;;8.48;3.60;;;;;;;;;;5059410;28;20041;-87
2022/06/10 05:05:02;;;;;;;6.78;3.35;;;;;;;;;;5060883;28;20040;-84
2022/06/10 05:07:28;;;;;;;6.38;3.63;;;;;;;;;;5059059;28;20067;-88
2022/06/10 05:09:54;;;;;;;7.88;3.20;;;;;;;;;;5059363;28;20499;-87
2022/06/10 05:12:20;;;;;;;9.52;3.95;;;;;;;;;;5058679;28;20127;-89
2022/06/10 05:14:47;;;;;;;5.60;3.50;;;;;;;;;;5060229;28;20087;-89
2022/06/10 05:17:13;;;;;;;4.00;3.40;;;;;;;;;;5075857;28;20044;-85
2022/06/10 05:19:39;;;;;;;8.13;3.10;;;;;;;;;;5058447;28;20539;-83
2022/06/10 05:22:05;;;;;;;6.07;2.90;;;;;;;;;;5058419;28;20091;-88
2022/06/10 05:24:31;;;;;;;8.10;3.00;;;;;;;;;;5058322;28;20504;-87
2022/06/10 05:26:56;;;;;;;9.40;3.13;;;;;;;;;;5057491;28;20036;-86
2022/06/10 05:29:23;;;;;;;6.93;2.80;;;;;;;;;;5057738;28;20046;-87
2022/06/10 05:31:49;;;;;;;5.03;3.00;;;;;;;;;;5058209;28;20396;-83
2022/06/10 05:36:59;;;;;;;4.55;3.00;;;;;;;;;;5073240;28;20041;-87
2022/06/10 05:39:25;;;;;;;6.07;2.67;;;;;;;;;;5073388;28;20378;-85
2022/06/10 05:42:06;;;;;;;10.65;3.15;;;;;;;;;;5057098;28;20063;-84
2022/06/10 05:44:38;;;;;;;6.13;3.20;;;;;;;;;;5056741;28;20048;-83
2022/06/10 05:47:07;;;;;;;8.68;3.75;;;;;;;;;;5057735;28;20130;-83
2022/06/10 05:49:33;;;;;;;6.63;2.92;;;;;;;;;;5074942;28;20773;-86
2022/06/10 05:51:59;;;;;;;8.75;3.15;;;;;;;;;;5074900;28;20044;-84
2022/06/10 05:54:25;;;;;;;7.07;3.80;;;;;;;;;;5056707;28;20052;-86
2022/06/10 05:56:51;;;;;;;10.65;3.50;;;;;;;;;;5056576;28;20078;-88
2022/06/10 05:59:18;;;;;;;8.20;3.28;;;;;;;;;;5056635;28;20063;-86
2022/06/10 06:01:46;;;;;;;5.65;2.83;;;;;;;;;;5056716;28;20041;-86
2022/06/10 06:04:12;;;;;;;9.48;3.17;;;;;;;;;;5056933;28;20480;-86
2022/06/10 06:06:38;;;;;;;7.18;2.95;;;;;;;;;;5056758;28;20764;-85
2022/06/10 06:09:04;;;;;;;6.18;3.20;;;;;;;;;;5055837;28;20123;-85
2022/06/10 06:11:30;;;;;;;7.63;2.90;;;;;;;;;;5056155;28;20439;-86
2022/06/10 06:13:58;;;;;;;9.73;3.15;;;;;;;;;;5055898;28;20048;-85
2022/06/10 06:16:24;;;;;;;6.88;3.03;;;;;;;;;;5056489;28;20039;-84
2022/06/10 06:18:52;;;;;;;9.00;3.50;;;;;;;;;;5056433;28;20079;-82
2022/06/10 06:21:18;;;;;;;8.93;3.22;;;;;;;;;;5055519;28;20032;-83
2022/06/10 06:23:44;;;;;;;14.95;3.45;;;;;;;;;;5057569;28;20044;-84
2022/06/10 06:26:17;;;;;;;11.32;3.13;;;;;;;;;;5080532;28;20045;-86
2022/06/10 06:28:43;;;;;;;7.07;3.35;;;;;;;;;;5098710;28;20035;-84
2022/06/10 06:31:10;;;;;;;9.48;3.55;;;;;;;;;;5066725;28;20041;-84
2022/06/10 06:33:36;;;;;;;10.95;3.47;;;;;;;;;;5095291;28;20074;-83
2022/06/10 06:36:04;;;;;;;9.52;3.53;;;;;;;;;;5065860;28;20384;-83
2022/06/10 06:38:31;;;;;;;12.90;4.65;;;;;;;;;;5066796;28;20397;-87
2022/06/10 06:40:57;;;;;;;8.13;3.40;;;;;;;;;;5064006;28;20048;-85
2022/06/10 06:43:23;;;;;;;7.18;3.05;;;;;;;;;;5065497;28;20377;-87
2022/06/10 06:45:49;;;;;;;8.90;2.88;;;;;;;;;;5066292;28;20044;-84
2022/06/10 06:48:16;;;;;;;6.70;2.92;;;;;;;;;;5063761;28;20629;-85
2022/06/10 06:50:45;;;;;;;4.55;2.53;;;;;;;;;;5064077;28;20399;-81
2022/06/10 06:53:11;;;;;;;7.38;3.08;;;;;;;;;;5080282;28;20066;-84
2022/06/10 06:55:38;;;;;;;8.55;2.80;;;;;;;;;;5065903;28;20039;-84
2022/06/10 06:58:04;;;;;;;5.32;3.13;;;;;;;;;;5064972;28;20040;-86
2022/06/10 07:00:31;;;;;;;4.95;3.00;;;;;;;;;;5064275;28;20036;-85
2022/06/10 07:02:56;;;;;;;7.75;3.15;;;;;;;;;;5066692;28;20385;-81
2022/06/10 07:05:22;;;;;;;11.40;3.08;;;;;;;;;;5064875;28;20044;-83
2022/06/10 07:07:49;;;;;;;5.82;3.15;;;;;;;;;;5066329;28;20039;-86
2022/06/10 07:10:16;;;;;;;5.90;3.53;;;;;;;;;;5066554;28;20072;-83
2022/06/10 07:12:42;;;;;;;5.97;3.35;;;;;;;;;;5066455;28;20067;-81
2022/06/10 07:15:09;;;;;;;6.63;3.13;;;;;;;;;;5063432;28;20032;-85
2022/06/10 07:17:35;;;;;;;10.23;3.25;;;;;;;;;;5063540;28;20373;-82
2022/06/10 07:20:01;;;;;;;10.50;3.53;;;;;;;;;;5064649;28;20063;-85
2022/06/10 07:22:27;;;;;;;7.82;3.47;;;;;;;;;;5063612;28;20042;-85
2022/06/10 07:24:54;;;;;;;5.88;2.88;;;;;;;;;;5066039;28;20037;-83
2022/06/10 07:27:21;;;;;;;9.63;3.53;;;;;;;;;;5064837;28;20082;-87
2022/06/10 07:29:48;;;;;;;7.85;3.50;;;;;;;;;;5065578;28;20534;-84
2022/06/10 07:32:14;;;;;;;10.50;3.75;;;;;;;;;;5079912;28;20051;-84
2022/06/10 07:34:40;;;;;;;12.35;4.90;;;;;;;;;;5064003;28;20095;-86
2022/06/10 07:37:06;;;;;;;10.45;4.57;;;;;;;;;;5063701;28;20070;-84
2022/06/10 07:39:33;;;;;;;9.52;3.90;;;;;;;;;;5065774;28;20052;-86
2022/06/10 07:42:02;;;;;;;9.90;4.78;;;;;;;;;;5063879;28;20040;-83
2022/06/10 07:44:30;;;;;;;10.20;5.35;;;;;;;;;;5063402;28;20082;-83
2022/06/10 07:46:57;;;;;;;10.52;4.53;;;;;;;;;;5064889;28;20642;-80
2022/06/10 07:49:23;;;;;;;12.32;5.20;;;;;;;;;;5063723;28;20036;-85
2022/06/10 07:51:49;;;;;;;10.55;4.82;;;;;;;;;;5063336;28;20072;-83
2022/06/10 07:54:15;;;;;;;10.30;5.00;;;;;;;;;;5063055;28;20040;-85
2022/06/10 07:56:41;;;;;;;10.07;4.70;;;;;;;;;;5064460;28;20038;-86
2022/06/10 07:59:08;;;;;;;10.60;4.93;;;;;;;;;;5064753;28;20072;-87
2022/06/10 08:01:34;;;;;;;10.13;4.75;;;;;;;;;;5062740;28;20044;-84
2022/06/10 08:04:00;;;;;;;9.02;4.90;;;;;;;;;;5061665;28;20036;-83
2022/06/10 08:06:27;;;;;;;8.13;4.15;;;;;;;;;;5072250;28;20036;-86
2022/06/10 08:08:53;;;;;;;7.93;4.78;;;;;;;;;;5054135;28;20115;-82
2022/06/10 08:11:19;;;;;;;10.80;4.65;;;;;;;;;;5055575;28;20044;-84
2022/06/10 08:13:46;;;;;;;8.90;4.85;;;;;;;;;;5055311;28;20404;-83
2022/06/10 08:16:12;;;;;;;8.07;4.75;;;;;;;;;;5055565;28;20455;-85
2022/06/10 08:18:38;;;;;;;10.27;5.15;;;;;;;;;;5055072;28;20397;-85
2022/06/10 08:23:50;;;;;;;7.78;5.43;;;;;;;;;;5070747;28;20103;-84
2022/06/10 08:26:16;;;;;;;7.78;4.78;;;;;;;;;;5053702;28;20086;-86
2022/06/10 08:28:43;;;;;;;11.80;5.07;;;;;;;;;;5053796;28;20166;-85
2022/06/10 08:31:09;;;;;;;8.88;5.47;;;;;;;;;;5053827;28;20082;-84
2022/06/10 08:33:35;;;;;;;5.40;4.30;;;;;;;;;;5070598;28;20489;-86
2022/06/10 08:36:01;;;;;;;11.63;5.32;;;;;;;;;;5054139;28;20033;-83
2022/06/10 08:38:27;;;;;;;13.20;5.78;;;;;;;;;;5054022;28;20495;-86
2022/06/10 08:41:03;;;;;;;10.18;5.35;;;;;;;;;;5054136;28;20451;-82
2022/06/10 08:43:50;;;;;;;9.15;5.05;;;;;;;;;;5054033;28;20127;-84
2022/06/10 08:46:25;;;;;;;12.65;5.50;;;;;;;;;;5053966;28;20051;-85
2022/06/10 08:49:10;;;;;;;8.77;4.65;;;;;;;;;;5053515;28;20070;-82
2022/06/10 08:51:44;;;;;;;9.13;5.18;;;;;;;;;;5053996;28;20047;-80
2022/06/10 08:54:15;;;;;;;13.38;5.97;;;;;;;;;;5053877;28;20036;-84
2022/06/10 08:56:44;;;;;;;10.00;5.70;;;;;;;;;;5053792;28;20037;-83
2022/06/10 08:59:21;;;;;;;8.85;5.85;;;;;;;;;;5053708;28;20036;-82
2022/06/10 09:01:50;;;;;;;10.23;5.50;;;;;;;;;;5053602;28;20037;-86
2022/06/10 09:04:27;;;;;;;10.77;6.25;;;;;;;;;;5053728;28;20173;-85
2022/06/10 09:06:55;;;;;;;8.52;5.00;;;;;;;;;;5054085;28;20512;-85
2022/06/10 09:09:23;;;;;;;9.85;4.97;;;;;;;;;;5053969;28;20476;-84
2022/06/10 09:11:52;;;;;;;8.77;5.05;;;;;;;;;;5053804;28;20044;-84
2022/06/10 09:14:19;;;;;;;7.95;5.20;;;;;;;;;;5053866;28;20060;-86
2022/06/10 09:16:50;;;;;;;9.68;4.50;;;;;;;;;;5057783;28;20058;-84
2022/06/10 09:19:16;;;;;;;9.75;5.35;;;;;;;;;;5074184;28;20041;-84
2022/06/10 09:21:48;;;;;;;11.52;5.07;;;;;;;;;;5057195;28;20051;-85
2022/06/10 09:24:21;;;;;;;7.82;4.75;;;;;;;;;;5057320;28;20399;-82
2022/06/10 09:26:50;;;;;;;9.60;4.50;;;;;;;;;;5057135;28;20109;-86
2022/06/10 09:29:16;;;;;;;10.63;4.72;;;;;;;;;;5073665;28;20048;-85
2022/06/10 09:31:50;;;;;;;10.15;4.90;;;;;;;;;;5056906;28;20066;-85
2022/06/10 09:34:19;;;;;;;7.38;4.10;;;;;;;;;;5057012;28;20055;-83
2022/06/10 09:36:52;;;;;;;11.15;4.82;;;;;;;;;;5057121;28;20098;-82
2022/06/10 09:42:23;;;;;;;7.93;4.90;;;;;;;;;;5073677;28;20047;-84
2022/06/10 09:45:01;;;;;;;10.20;5.05;;;;;;;;;;5056619;28;20459;-84
2022/06/10 09:47:27;;;;;;;8.65;5.03;;;;;;;;;;5056878;28;20059;-83
2022/06/10 09:49:53;;;;;;;7.88;4.85;;;;;;;;;;5056706;28;20045;-84
2022/06/10 09:52:31;;;;;;;11.52;5.28;;;;;;;;;;5056411;28;20404;-85
2022/06/10 09:55:15;;;;;;;8.73;5.22;;;;;;;;;;5056912;28;20048;-81
2022/06/10 09:57:44;;;;;;;9.35;5.05;;;;;;;;;;5056374;28;20075;-82
2022/06/10 10:00:21;;;;;;;11.20;5.82;;;;;;;;;;5056312;28;20033;-83
2022/06/10 10:02:56;;;;;;;9.80;4.53;;;;;;;;;;5056227;28;20051;-85
2022/06/10 10:05:27;;;;;;;9.70;4.82;;;;;;;;;;5056363;28;20044;-83
2022/06/10 10:07:58;;;;;;;8.90;4.95;;;;;;;;;;5056383;28;20036;-82
2022/06/10 10:10:39;;;;;;;11.45;5.10;;;;;;;;;;5056599;28;20040;-84
2022/06/10 10:13:24;;;;;;;11.55;5.10;;;;;;;;;;5056575;28;20080;-86
2022/06/10 10:16:13;;;;;;;9.70;5.13;;;;;;;;;;5056400;28;20048;-85
2022/06/10 10:18:58;;;;;;;8.13;5.03;;;;;;;;;;5050721;28;20052;-82
2022/06/10 10:21:33;;;;;;;9.80;4.65;;;;;;;;;;5056330;28;20451;-82
2022/06/10 10:23:59;;;;;;;10.70;5.22;;;;;;;;;;5056497;28;20044;-83
2022/06/10 10:26:29;;;;;;;9.00;4.82;;;;;;;;;;5054798;28;20558;-83
2022/06/10 10:28:59;;;;;;;8.20;4.88;;;;;;;;;;5056314;28;20076;-83
2022/06/10 10:31:27;;;;;;;8.85;4.65;;;;;;;;;;5055877;28;20484;-86
2022/06/10 10:33:53;;;;;;;9.15;4.43;;;;;;;;;;5055974;28;20489;-87
2022/06/10 10:36:30;;;;;;;21.13;5.32;;;;;;;;;;5055977;28;20094;-85
2022/06/10 10:38:56;;;;;;;8.30;4.80;;;;;;;;;;5072177;28;20496;-82
2022/06/10 10:41:28;;;;;;;9.63;3.97;;;;;;;;;;5072897;28;20055;-83
2022/06/10 10:43:55;;;;;;;7.75;4.07;;;;;;;;;;5055640;28;20123;-84
2022/06/10 10:46:24;;;;;;;8.90;4.68;;;;;;;;;;5055843;28;20427;-83
2022/06/10 10:48:50;;;;;;;6.80;4.35;;;;;;;;;;5055373;28;20041;-85
2022/06/10 10:51:21;;;;;;;7.22;4.50;;;;;;;;;;5056114;28;20086;-82
2022/06/10 10:53:55;;;;;;;9.98;4.32;;;;;;;;;;5055481;28;20485;-87
2022/06/10 10:56:29;;;;;;;5.30;4.10;;;;;;;;;;5055573;28;20037;-83
2022/06/10 10:58:55;;;;;;;10.00;4.20;;;;;;;;;;5055741;28;20454;-83
2022/06/10 11:01:47;;;;;;;10.48;4.20;;;;;;;;;;5055645;28;20060;-85
2022/06/10 11:04:26;;;;;;;7.38;5.15;;;;;;;;;;5055134;28;20040;-83
2022/06/10 11:07:12;;;;;;;7.40;3.65;;;;;;;;;;5055070;28;20051;-85
2022/06/10 11:09:45;;;;;;;6.10;3.80;;;;;;;;;;5047676;28;20456;-85
2022/06/10 11:12:17;;;;;;;7.35;3.83;;;;;;;;;;5055310;28;20496;-85
2022/06/10 11:14:46;;;;;;;4.47;3.50;;;;;;;;;;5054859;28;20038;-85
2022/06/10 11:17:12;;;;;;;5.90;3.60;;;;;;;;;;5054858;28;20044;-84
2022/06/10 11:19:38;;;;;;;7.13;3.97;;;;;;;;;;5055341;28;20505;-85
2022/06/10 11:22:04;;;;;;;11.35;4.28;;;;;;;;;;5071607;28;20044;-82
2022/06/10 11:24:32;;;;;;;10.00;4.10;;;;;;;;;;5054868;28;20063;-83
2022/06/10 11:26:59;;;;;;;11.68;4.53;;;;;;;;;;5054741;28;20074;-86
2022/06/10 11:29:26;;;;;;;7.53;3.67;;;;;;;;;;5055034;28;20507;-87
2022/06/10 11:32:00;;;;;;;10.60;4.00;;;;;;;;;;5054791;28;20032;-84
2022/06/10 11:34:38;;;;;;;10.73;3.78;;;;;;;;;;5054373;28;20037;-84
2022/06/10 11:37:19;;;;;;;8.70;3.53;;;;;;;;;;5054147;28;20392;-84
2022/06/10 11:39:48;;;;;;;6.50;3.65;;;;;;;;;;5054408;28;20048;-85
2022/06/10 11:42:19;;;;;;;7.50;3.47;;;;;;;;;;5054874;28;20041;-86
2022/06/10 11:44:47;;;;;;;5.95;3.50;;;;;;;;;;5054665;28;20052;-87
2022/06/10 11:47:20;;;;;;;6.07;3.28;;;;;;;;;;5071148;28;20041;-86
2022/06/10 11:49:49;;;;;;;8.52;3.80;;;;;;;;;;5054696;28;20066;-83
2022/06/10 11:52:24;;;;;;;5.47;3.53;;;;;;;;;;5071485;28;20032;-84
2022/06/10 11:54:59;;;;;;;8.85;3.47;;;;;;;;;;5054323;28;20140;-83
2022/06/10 12:00:35;;;;;;;8.27;3.50;;;;;;;;;;5071376;28;20382;-83
2022/06/10 12:03:07;;;;;;;5.50;3.28;;;;;;;;;;5054043;28;20496;-86
2022/06/10 12:05:34;;;;;;;10.00;3.25;;;;;;;;;;5054330;28;20051;-83
2022/06/10 12:08:05;;;;;;;6.22;3.03;;;;;;;;;;5054221;28;20516;-84
2022/06/10 12:10:35;;;;;;;10.27;3.53;;;;;;;;;;5054468;28;20052;-86
2022/06/10 12:13:01;;;;;;;6.50;3.00;;;;;;;;;;5054763;28;20049;-80
2022/06/10 12:15:30;;;;;;;13.07;4.53;;;;;;;;;;5054538;28;20041;-85
2022/06/10 12:17:59;;;;;;;8.93;3.42;;;;;;;;;;5071161;28;20392;-84
2022/06/10 12:20:25;;;;;;;6.75;3.00;;;;;;;;;;5054373;28;20094;-83
2022/06/10 12:22:51;;;;;;;8.60;3.03;;;;;;;;;;5054569;28;20044;-86
2022/06/10 12:25:21;;;;;;;6.43;2.80;;;;;;;;;;5054755;28;20507;-84
2022/06/10 12:28:04;;;;;;;8.60;3.23;;;;;;;;;;5054962;28;20076;-85
2022/06/10 12:30:42;;;;;;;8.48;3.38;;;;;;;;;;5054679;28;20472;-85
2022/06/10 12:33:13;;;;;;;5.55;3.20;;;;;;;;;;5071476;28;20051;-86
2022/06/10 12:35:42;;;;;;;9.25;3.65;;;;;;;;;;5071157;28;20063;-83
2022/06/10 12:38:11;;;;;;;10.07;5.00;;;;;;;;;;5053857;28;20481;-84
2022/06/10 12:40:57;;;;;;;9.10;4.00;;;;;;;;;;5054055;28;20052;-82
2022/06/10 12:43:29;;;;;;;11.82;4.80;;;;;;;;;;5053872;28;20403;-87
2022/06/10 12:46:01;;;;;;;10.60;4.25;;;;;;;;;;5054320;28;20052;-86
2022/06/10 12:48:42;;;;;;;5.60;3.45;;;;;;;;;;5054230;28;20131;-85
2022/06/10 12:51:11;;;;;;;13.13;4.90;;;;;;;;;;5058026;28;20044;-82
2022/06/10 12:53:42;;;;;;;10.68;4.05;;;;;;;;;;5058087;28;20423;-82
2022/06/10 12:56:20;;;;;;;7.55;3.63;;;;;;;;;;5058035;28;20535;-84
2022/06/10 12:59:11;;;;;;;10.77;4.40;;;;;;;;;;5074557;28;20075;-82
2022/06/10 13:01:36;;;;;;;6.80;3.13;;;;;;;;;;5052765;28;20070;-84
2022/06/10 13:04:11;;;;;;;7.03;3.22;;;;;;;;;;5058038;28;20041;-82
2022/06/10 13:06:43;;;;;;;11.20;3.88;;;;;;;;;;5074116;28;20044;-87
2022/06/10 13:09:12;;;;;;;7.45;3.97;;;;;;;;;;5057866;28;20048;-83
2022/06/10 13:11:38;;;;;;;8.35;3.85;;;;;;;;;;5057563;28;20127;-81
2022/06/10 13:14:24;;;;;;;6.00;3.13;;;;;;;;;;5058027;28;20196;-84
2022/06/10 13:16:59;;;;;;;6.68;2.58;;;;;;;;;;5049991;28;20079;-83
2022/06/10 13:20:02;;;;;;;10.52;3.70;;;;;;;;;;5057815;28;20041;-83
2022/06/10 13:22:38;;;;;;;9.93;3.03;;;;;;;;;;5057637;28;20044;-85
2022/06/10 13:25:04;;;;;;;9.23;4.10;;;;;;;;;;5058342;28;20040;-82
2022/06/10 13:27:32;;;;;;;7.00;2.70;;;;;;;;;;5075359;28;20500;-80
2022/06/10 13:30:00;;;;;;;7.78;3.25;;;;;;;;;;5058659;28;20544;-83
2022/06/10 13:32:28;;;;;;;7.80;3.47;;;;;;;;;;5076357;28;20083;-83
2022/06/10 13:35:04;;;;;;;9.77;3.72;;;;;;;;;;5058653;28;20080;-83
2022/06/10 13:37:32;;;;;;;11.45;3.50;;;;;;;;;;5058283;28;20037;-80
2022/06/10 13:40:01;;;;;;;9.25;3.35;;;;;;;;;;5058159;28;20044;-86
2022/06/10 13:42:31;;;;;;;8.57;3.50;;;;;;;;;;5057750;28;20040;-86
2022/06/10 13:44:57;;;;;;;;;;;;;;;;;;5058186;28;20089;-86
2022/06/10 13:47:32;;;;;;;6.32;3.22;;;;;;;;;;5073727;28;20432;-84
2022/06/10 13:52:43;;;;;;;5.10;3.28;;;;;;;;;;5074693;28;20048;-86
2022/06/10 13:55:18;;;;;;;8.75;3.90;;;;;;;;;;5057890;28;20091;-83
2022/06/10 13:57:45;;;;;;;10.70;4.80;;;;;;;;;;5074394;28;20080;-84
2022/06/10 14:00:20;;;;;;;9.45;4.32;;;;;;;;;;5057173;28;20037;-83
2022/06/10 14:02:46;;;;;;;7.68;4.40;;;;;;;;;;5073896;28;20047;-87
2022/06/10 14:05:18;;;;;;;10.40;4.18;;;;;;;;;;5056906;28;20040;-82
2022/06/10 14:07:45;;;;;;;7.35;4.25;;;;;;;;;;5057243;28;20485;-83
2022/06/10 14:10:16;;;;;;;6.88;4.15;;;;;;;;;;5057423;28;20036;-84
2022/06/10 14:12:52;;;;;;;6.88;4.38;;;;;;;;;;5057505;28;20044;-87
2022/06/10 14:15:19;;;;;;;7.43;3.97;;;;;;;;;;5057897;28;20079;-84
2022/06/10 14:17:52;;;;;;;9.48;4.10;;;;;;;;;;5058340;28;20047;-83
2022/06/10 14:20:20;;;;;;;7.97;4.15;;;;;;;;;;5057775;28;20499;-84
2022/06/10 14:22:47;;;;;;;9.65;4.20;;;;;;;;;;5074929;28;20033;-84
2022/06/10 14:25:13;;;;;;;5.05;3.83;;;;;;;;;;5058095;28;20504;-82
2022/06/10 14:27:47;;;;;;;7.72;4.40;;;;;;;;;;5056497;28;20040;-86
2022/06/10 14:30:15;;;;;;;5.00;3.90;;;;;;;;;;5056394;28;20041;-85
2022/06/10 14:32:49;;;;;;;8.02;4.18;;;;;;;;;;5058634;28;20085;-83
2022/06/10 14:35:31;;;;;;;7.45;4.35;;;;;;;;;;5057616;28;20040;-85
2022/06/10 14:38:02;;;;;;;8.05;4.97;;;;;;;;;;5056456;28;20047;-82
2022/06/10 14:40:29;;;;;;;11.10;5.55;;;;;;;;;;5056756;28;20048;-82
2022/06/10 14:43:17;;;;;;;10.20;5.20;;;;;;;;;;5057073;28;20045;-84
2022/06/10 14:45:43;;;;;;;7.53;4.78;;;;;;;;;;5056455;28;20044;-88
2022/06/10 14:48:12;;;;;;;7.35;4.00;;;;;;;;;;5057895;28;20481;-84
2022/06/10 14:50:40;;;;;;;7.40;4.22;;;;;;;;;;5056409;28;20094;-79
2022/06/10 14:53:26;;;;;;;7.50;4.68;;;;;;;;;;5056200;28;20492;-84
2022/06/10 14:55:52;;;;;;;7.00;4.07;;;;;;;;;;5056197;28;20125;-83
2022/06/10 14:58:21;;;;;;;5.95;4.70;;;;;;;;;;5056652;28;20068;-86
2022/06/10 15:00:48;;;;;;;6.05;4.38;;;;;;;;;;5055960;28;20036;-84
2022/06/10 15:03:17;;;;;;;5.20;3.80;;;;;;;;;;5068701;28;20397;-83
2022/06/10 15:08:28;;;;;;;8.35;4.35;;;;;;;;;;5068500;28;20040;-86
2022/06/10 15:10:54;;;;;;;6.28;3.17;;;;;;;;;;5068499;28;20128;-86
2022/06/10 15:13:26;;;;;;;6.53;3.88;;;;;;;;;;5051616;28;20135;-83
2022/06/10 15:15:52;;;;;;;5.18;3.50;;;;;;;;;;5068245;28;20715;-86
2022/06/10 15:18:18;;;;;;;5.90;3.50;;;;;;;;;;5068836;28;20051;-85